sensor_id;sensor_type;location;lat;lon;timestamp;P1;durP1;ratioP1;P2;durP2;ratioP2
18544;SDS011;9402;51.460;7.276;2022-07-04T00:01:59;1.20;;;0.90;;
18544;SDS011;9402;51.460;7.276;2022-07-04T00:04:03;0.93;;;0.70;;
18544;SDS011;9402;51.460;7.276;2022-07-04T00:06:05;2.80;;;0.97;;
18544;SDS011;9402;51.460;7.276;2022-07-04T00:08:08;5.40;;;0.90;;
18544;SDS011;9402;51.460;7.276;2022-07-04T00:10:12;2.97;;;0.83;;
18544;SDS011;9402;51.460;7.276;2022-07-04T00:12:15;2.77;;;1.03;;
18544;SDS011;9402;51.460;7.276;2022-07-04T00:14:18;3.90;;;0.87;;
18544;SDS011;9402;51.460;7.276;2022-07-04T00:16:20;2.33;;;1.17;;
18544;SDS011;9402;51.460;7.276;2022-07-04T00:18:22;6.37;;;1.00;;
18544;SDS011;9402;51.460;7.276;2022-07-04T00:20:25;2.07;;;0.70;;
18544;SDS011;9402;51.460;7.276;2022-07-04T00:22:27;4.30;;;1.00;;
18544;SDS011;9402;51.460;7.276;2022-07-04T00:24:29;3.17;;;0.90;;
18544;SDS011;9402;51.460;7.276;2022-07-04T00:26:33;1.60;;;1.00;;
18544;SDS011;9402;51.460;7.276;2022-07-04T00:28:35;1.50;;;1.00;;
18544;SDS011;9402;51.460;7.276;2022-07-04T00:30:38;1.83;;;1.00;;
18544;SDS011;9402;51.460;7.276;2022-07-04T00:32:40;2.90;;;0.83;;
18544;SDS011;9402;51.460;7.276;2022-07-04T00:34:42;1.00;;;0.63;;
18544;SDS011;9402;51.460;7.276;2022-07-04T00:36:45;2.90;;;0.97;;
18544;SDS011;9402;51.460;7.276;2022-07-04T00:38:47;1.33;;;1.00;;
18544;SDS011;9402;51.460;7.276;2022-07-04T00:40:50;6.10;;;1.10;;
18544;SDS011;9402;51.460;7.276;2022-07-04T00:42:53;1.47;;;0.97;;
18544;SDS011;9402;51.460;7.276;2022-07-04T00:45:02;1.40;;;1.10;;
18544;SDS011;9402;51.460;7.276;2022-07-04T00:47:06;1.40;;;1.00;;
18544;SDS011;9402;51.460;7.276;2022-07-04T00:49:09;1.23;;;1.10;;
18544;SDS011;9402;51.460;7.276;2022-07-04T00:51:12;2.20;;;0.80;;
18544;SDS011;9402;51.460;7.276;2022-07-04T00:53:14;1.20;;;1.00;;
18544;SDS011;9402;51.460;7.276;2022-07-04T00:55:17;1.60;;;1.10;;
18544;SDS011;9402;51.460;7.276;2022-07-04T00:57:19;1.50;;;0.87;;
18544;SDS011;9402;51.460;7.276;2022-07-04T00:59:23;4.23;;;1.30;;
18544;SDS011;9402;51.460;7.276;2022-07-04T01:01:25;1.77;;;0.90;;
18544;SDS011;9402;51.460;7.276;2022-07-04T01:03:28;0.90;;;0.80;;
18544;SDS011;9402;51.460;7.276;2022-07-04T01:05:30;1.67;;;0.80;;
18544;SDS011;9402;51.460;7.276;2022-07-04T01:07:33;1.43;;;0.83;;
18544;SDS011;9402;51.460;7.276;2022-07-04T01:09:36;2.50;;;0.90;;
18544;SDS011;9402;51.460;7.276;2022-07-04T01:11:38;2.53;;;1.10;;
18544;SDS011;9402;51.460;7.276;2022-07-04T01:13:41;1.00;;;0.80;;
18544;SDS011;9402;51.460;7.276;2022-07-04T01:15:45;4.07;;;0.93;;
18544;SDS011;9402;51.460;7.276;2022-07-04T01:17:48;2.23;;;0.97;;
18544;SDS011;9402;51.460;7.276;2022-07-04T01:19:51;2.33;;;1.00;;
18544;SDS011;9402;51.460;7.276;2022-07-04T01:21:55;1.20;;;0.80;;
18544;SDS011;9402;51.460;7.276;2022-07-04T01:23:57;2.90;;;0.97;;
18544;SDS011;9402;51.460;7.276;2022-07-04T01:26:00;2.10;;;0.97;;
18544;SDS011;9402;51.460;7.276;2022-07-04T01:28:04;1.93;;;0.80;;
18544;SDS011;9402;51.460;7.276;2022-07-04T01:30:08;3.43;;;0.90;;
18544;SDS011;9402;51.460;7.276;2022-07-04T01:32:11;1.67;;;1.00;;
18544;SDS011;9402;51.460;7.276;2022-07-04T01:34:13;1.50;;;0.93;;
18544;SDS011;9402;51.460;7.276;2022-07-04T01:36:15;3.03;;;1.60;;
18544;SDS011;9402;51.460;7.276;2022-07-04T01:38:19;1.07;;;0.70;;
18544;SDS011;9402;51.460;7.276;2022-07-04T01:40:22;1.23;;;0.80;;
18544;SDS011;9402;51.460;7.276;2022-07-04T01:42:24;1.00;;;0.77;;
18544;SDS011;9402;51.460;7.276;2022-07-04T01:44:26;2.80;;;1.10;;
18544;SDS011;9402;51.460;7.276;2022-07-04T01:46:29;4.60;;;0.90;;
18544;SDS011;9402;51.460;7.276;2022-07-04T01:48:31;3.53;;;1.03;;
18544;SDS011;9402;51.460;7.276;2022-07-04T01:50:33;2.60;;;1.00;;
18544;SDS011;9402;51.460;7.276;2022-07-04T01:52:36;1.17;;;0.93;;
18544;SDS011;9402;51.460;7.276;2022-07-04T01:54:39;1.00;;;0.90;;
18544;SDS011;9402;51.460;7.276;2022-07-04T01:56:42;2.23;;;1.00;;
18544;SDS011;9402;51.460;7.276;2022-07-04T01:58:44;1.30;;;0.80;;
18544;SDS011;9402;51.460;7.276;2022-07-04T02:00:47;3.43;;;1.10;;
18544;SDS011;9402;51.460;7.276;2022-07-04T02:03:07;1.70;;;0.90;;
18544;SDS011;9402;51.460;7.276;2022-07-04T02:05:09;1.57;;;0.90;;
18544;SDS011;9402;51.460;7.276;2022-07-04T02:07:11;2.90;;;0.90;;
18544;SDS011;9402;51.460;7.276;2022-07-04T02:09:14;1.93;;;1.03;;
18544;SDS011;9402;51.460;7.276;2022-07-04T02:11:17;1.40;;;0.90;;
18544;SDS011;9402;51.460;7.276;2022-07-04T02:13:20;1.27;;;1.00;;
18544;SDS011;9402;51.460;7.276;2022-07-04T02:15:21;5.30;;;1.13;;
18544;SDS011;9402;51.460;7.276;2022-07-04T02:17:23;4.33;;;1.97;;
18544;SDS011;9402;51.460;7.276;2022-07-04T02:19:26;1.30;;;0.83;;
18544;SDS011;9402;51.460;7.276;2022-07-04T02:21:28;1.73;;;1.20;;
18544;SDS011;9402;51.460;7.276;2022-07-04T02:23:30;1.13;;;1.03;;
18544;SDS011;9402;51.460;7.276;2022-07-04T02:25:33;1.23;;;0.90;;
18544;SDS011;9402;51.460;7.276;2022-07-04T02:27:36;2.20;;;1.40;;
18544;SDS011;9402;51.460;7.276;2022-07-04T02:29:39;1.73;;;0.90;;
18544;SDS011;9402;51.460;7.276;2022-07-04T02:31:42;1.67;;;0.97;;
18544;SDS011;9402;51.460;7.276;2022-07-04T02:33:44;2.40;;;0.90;;
18544;SDS011;9402;51.460;7.276;2022-07-04T02:35:46;7.33;;;1.10;;
18544;SDS011;9402;51.460;7.276;2022-07-04T02:37:49;1.73;;;0.97;;
18544;SDS011;9402;51.460;7.276;2022-07-04T02:39:51;1.40;;;1.20;;
18544;SDS011;9402;51.460;7.276;2022-07-04T02:41:53;3.53;;;1.27;;
18544;SDS011;9402;51.460;7.276;2022-07-04T02:43:57;2.70;;;1.37;;
18544;SDS011;9402;51.460;7.276;2022-07-04T02:46:00;1.00;;;0.90;;
18544;SDS011;9402;51.460;7.276;2022-07-04T02:48:02;3.00;;;1.13;;
18544;SDS011;9402;51.460;7.276;2022-07-04T02:50:05;4.70;;;1.10;;
18544;SDS011;9402;51.460;7.276;2022-07-04T02:52:08;4.50;;;1.03;;
18544;SDS011;9402;51.460;7.276;2022-07-04T02:54:10;2.00;;;1.30;;
18544;SDS011;9402;51.460;7.276;2022-07-04T02:56:12;3.57;;;1.30;;
18544;SDS011;9402;51.460;7.276;2022-07-04T02:58:15;1.30;;;1.07;;
18544;SDS011;9402;51.460;7.276;2022-07-04T03:00:19;1.63;;;1.03;;
18544;SDS011;9402;51.460;7.276;2022-07-04T03:02:21;1.67;;;1.30;;
18544;SDS011;9402;51.460;7.276;2022-07-04T03:04:23;1.20;;;0.90;;
18544;SDS011;9402;51.460;7.276;2022-07-04T03:06:26;2.70;;;1.47;;
18544;SDS011;9402;51.460;7.276;2022-07-04T03:08:28;5.43;;;1.00;;
18544;SDS011;9402;51.460;7.276;2022-07-04T03:10:30;3.33;;;1.27;;
18544;SDS011;9402;51.460;7.276;2022-07-04T03:12:33;1.23;;;1.13;;
18544;SDS011;9402;51.460;7.276;2022-07-04T03:14:35;1.60;;;0.97;;
18544;SDS011;9402;51.460;7.276;2022-07-04T03:16:39;2.03;;;1.10;;
18544;SDS011;9402;51.460;7.276;2022-07-04T03:18:41;2.60;;;1.10;;
18544;SDS011;9402;51.460;7.276;2022-07-04T03:20:43;2.23;;;1.27;;
18544;SDS011;9402;51.460;7.276;2022-07-04T03:22:46;5.17;;;1.37;;
18544;SDS011;9402;51.460;7.276;2022-07-04T03:24:48;1.57;;;1.20;;
18544;SDS011;9402;51.460;7.276;2022-07-04T03:26:51;1.20;;;1.10;;
18544;SDS011;9402;51.460;7.276;2022-07-04T03:28:53;3.90;;;1.10;;
18544;SDS011;9402;51.460;7.276;2022-07-04T03:30:56;2.70;;;1.33;;
18544;SDS011;9402;51.460;7.276;2022-07-04T03:33:00;1.10;;;1.00;;
18544;SDS011;9402;51.460;7.276;2022-07-04T03:35:03;2.40;;;1.30;;
18544;SDS011;9402;51.460;7.276;2022-07-04T03:37:06;6.43;;;1.10;;
18544;SDS011;9402;51.460;7.276;2022-07-04T03:39:08;3.10;;;1.30;;
18544;SDS011;9402;51.460;7.276;2022-07-04T03:41:11;3.70;;;1.67;;
18544;SDS011;9402;51.460;7.276;2022-07-04T03:43:13;8.83;;;1.17;;
18544;SDS011;9402;51.460;7.276;2022-07-04T03:45:15;2.77;;;1.10;;
18544;SDS011;9402;51.460;7.276;2022-07-04T03:47:18;2.40;;;1.10;;
18544;SDS011;9402;51.460;7.276;2022-07-04T03:49:21;2.40;;;1.10;;
18544;SDS011;9402;51.460;7.276;2022-07-04T03:51:24;2.23;;;1.20;;
18544;SDS011;9402;51.460;7.276;2022-07-04T03:53:26;6.67;;;1.97;;
18544;SDS011;9402;51.460;7.276;2022-07-04T03:55:28;2.27;;;1.47;;
18544;SDS011;9402;51.460;7.276;2022-07-04T03:57:31;3.23;;;1.10;;
18544;SDS011;9402;51.460;7.276;2022-07-04T03:59:33;4.57;;;1.60;;
18544;SDS011;9402;51.460;7.276;2022-07-04T04:01:35;4.43;;;1.63;;
18544;SDS011;9402;51.460;7.276;2022-07-04T04:03:38;10.00;;;1.23;;
18544;SDS011;9402;51.460;7.276;2022-07-04T04:05:59;1.50;;;1.40;;
18544;SDS011;9402;51.460;7.276;2022-07-04T04:08:01;1.90;;;1.20;;
18544;SDS011;9402;51.460;7.276;2022-07-04T04:10:04;1.67;;;1.13;;
18544;SDS011;9402;51.460;7.276;2022-07-04T04:12:08;4.33;;;1.40;;
18544;SDS011;9402;51.460;7.276;2022-07-04T04:14:11;1.70;;;1.40;;
18544;SDS011;9402;51.460;7.276;2022-07-04T04:16:13;1.87;;;1.17;;
18544;SDS011;9402;51.460;7.276;2022-07-04T04:18:16;1.60;;;1.27;;
18544;SDS011;9402;51.460;7.276;2022-07-04T04:20:18;2.03;;;1.43;;
18544;SDS011;9402;51.460;7.276;2022-07-04T04:22:22;3.30;;;1.40;;
18544;SDS011;9402;51.460;7.276;2022-07-04T04:24:24;1.97;;;1.10;;
18544;SDS011;9402;51.460;7.276;2022-07-04T04:26:27;4.13;;;1.70;;
18544;SDS011;9402;51.460;7.276;2022-07-04T04:28:29;3.30;;;1.30;;
18544;SDS011;9402;51.460;7.276;2022-07-04T04:30:31;1.97;;;1.20;;
18544;SDS011;9402;51.460;7.276;2022-07-04T04:32:34;2.00;;;1.33;;
18544;SDS011;9402;51.460;7.276;2022-07-04T04:34:36;4.63;;;1.70;;
18544;SDS011;9402;51.460;7.276;2022-07-04T04:36:38;1.10;;;0.90;;
18544;SDS011;9402;51.460;7.276;2022-07-04T04:38:42;7.33;;;1.40;;
18544;SDS011;9402;51.460;7.276;2022-07-04T04:40:44;8.50;;;2.10;;
18544;SDS011;9402;51.460;7.276;2022-07-04T04:42:47;2.03;;;1.20;;
18544;SDS011;9402;51.460;7.276;2022-07-04T04:44:49;2.50;;;1.10;;
18544;SDS011;9402;51.460;7.276;2022-07-04T04:46:52;4.23;;;1.53;;
18544;SDS011;9402;51.460;7.276;2022-07-04T04:48:54;2.17;;;1.40;;
18544;SDS011;9402;51.460;7.276;2022-07-04T04:50:56;2.50;;;1.47;;
18544;SDS011;9402;51.460;7.276;2022-07-04T04:52:59;6.23;;;1.53;;
18544;SDS011;9402;51.460;7.276;2022-07-04T04:55:03;11.17;;;1.80;;
18544;SDS011;9402;51.460;7.276;2022-07-04T04:57:05;2.47;;;1.50;;
18544;SDS011;9402;51.460;7.276;2022-07-04T04:59:08;2.83;;;1.70;;
18544;SDS011;9402;51.460;7.276;2022-07-04T05:01:10;12.23;;;2.03;;
18544;SDS011;9402;51.460;7.276;2022-07-04T05:03:12;2.27;;;1.50;;
18544;SDS011;9402;51.460;7.276;2022-07-04T05:05:15;1.83;;;1.40;;
18544;SDS011;9402;51.460;7.276;2022-07-04T05:07:17;2.03;;;1.50;;
18544;SDS011;9402;51.460;7.276;2022-07-04T05:09:20;2.50;;;1.40;;
18544;SDS011;9402;51.460;7.276;2022-07-04T05:11:24;4.67;;;2.20;;
18544;SDS011;9402;51.460;7.276;2022-07-04T05:13:26;2.40;;;1.50;;
18544;SDS011;9402;51.460;7.276;2022-07-04T05:15:29;2.20;;;1.87;;
18544;SDS011;9402;51.460;7.276;2022-07-04T05:17:31;1.73;;;1.63;;
18544;SDS011;9402;51.460;7.276;2022-07-04T05:19:33;7.00;;;1.57;;
18544;SDS011;9402;51.460;7.276;2022-07-04T05:21:36;4.90;;;1.50;;
18544;SDS011;9402;51.460;7.276;2022-07-04T05:23:38;6.50;;;1.77;;
18544;SDS011;9402;51.460;7.276;2022-07-04T05:25:41;5.97;;;1.80;;
18544;SDS011;9402;51.460;7.276;2022-07-04T05:27:44;4.20;;;2.10;;
18544;SDS011;9402;51.460;7.276;2022-07-04T05:29:47;2.47;;;1.73;;
18544;SDS011;9402;51.460;7.276;2022-07-04T05:31:49;10.50;;;2.57;;
18544;SDS011;9402;51.460;7.276;2022-07-04T05:33:51;11.67;;;2.33;;
18544;SDS011;9402;51.460;7.276;2022-07-04T05:35:55;7.37;;;2.57;;
18544;SDS011;9402;51.460;7.276;2022-07-04T05:37:57;4.37;;;2.60;;
18544;SDS011;9402;51.460;7.276;2022-07-04T05:39:59;5.70;;;2.77;;
18544;SDS011;9402;51.460;7.276;2022-07-04T05:42:02;5.13;;;2.57;;
18544;SDS011;9402;51.460;7.276;2022-07-04T05:44:06;5.70;;;2.70;;
18544;SDS011;9402;51.460;7.276;2022-07-04T05:46:08;5.40;;;2.50;;
18544;SDS011;9402;51.460;7.276;2022-07-04T05:48:11;5.60;;;3.67;;
18544;SDS011;9402;51.460;7.276;2022-07-04T05:50:13;7.90;;;3.50;;
18544;SDS011;9402;51.460;7.276;2022-07-04T05:52:16;12.40;;;2.93;;
18544;SDS011;9402;51.460;7.276;2022-07-04T05:54:18;13.00;;;2.80;;
18544;SDS011;9402;51.460;7.276;2022-07-04T05:56:21;6.93;;;2.40;;
18544;SDS011;9402;51.460;7.276;2022-07-04T05:58:24;7.83;;;3.23;;
18544;SDS011;9402;51.460;7.276;2022-07-04T06:00:28;4.33;;;2.43;;
18544;SDS011;9402;51.460;7.276;2022-07-04T06:02:30;9.77;;;3.37;;
18544;SDS011;9402;51.460;7.276;2022-07-04T06:04:32;5.80;;;2.43;;
18544;SDS011;9402;51.460;7.276;2022-07-04T06:06:35;6.10;;;3.00;;
18544;SDS011;9402;51.460;7.276;2022-07-04T06:08:37;6.10;;;2.73;;
18544;SDS011;9402;51.460;7.276;2022-07-04T06:10:39;6.53;;;2.17;;
18544;SDS011;9402;51.460;7.276;2022-07-04T06:12:42;4.33;;;2.00;;
18544;SDS011;9402;51.460;7.276;2022-07-04T06:14:44;4.30;;;2.20;;
18544;SDS011;9402;51.460;7.276;2022-07-04T06:16:48;5.00;;;2.10;;
18544;SDS011;9402;51.460;7.276;2022-07-04T06:18:51;5.30;;;2.33;;
18544;SDS011;9402;51.460;7.276;2022-07-04T06:20:53;5.17;;;2.40;;
18544;SDS011;9402;51.460;7.276;2022-07-04T06:22:56;5.37;;;1.47;;
18544;SDS011;9402;51.460;7.276;2022-07-04T06:24:59;4.13;;;1.80;;
18544;SDS011;9402;51.460;7.276;2022-07-04T06:27:01;6.03;;;2.30;;
18544;SDS011;9402;51.460;7.276;2022-07-04T06:29:04;5.13;;;1.60;;
18544;SDS011;9402;51.460;7.276;2022-07-04T06:31:06;4.50;;;1.70;;
18544;SDS011;9402;51.460;7.276;2022-07-04T06:33:10;4.20;;;1.40;;
18544;SDS011;9402;51.460;7.276;2022-07-04T06:35:13;2.50;;;1.53;;
18544;SDS011;9402;51.460;7.276;2022-07-04T06:37:37;2.40;;;1.30;;
18544;SDS011;9402;51.460;7.276;2022-07-04T06:39:39;3.40;;;1.40;;
18544;SDS011;9402;51.460;7.276;2022-07-04T06:41:41;4.27;;;1.50;;
18544;SDS011;9402;51.460;7.276;2022-07-04T06:43:44;2.23;;;1.30;;
18544;SDS011;9402;51.460;7.276;2022-07-04T06:45:46;6.90;;;1.70;;
18544;SDS011;9402;51.460;7.276;2022-07-04T06:47:48;2.13;;;1.33;;
18544;SDS011;9402;51.460;7.276;2022-07-04T06:49:52;4.23;;;1.40;;
18544;SDS011;9402;51.460;7.276;2022-07-04T06:51:54;6.47;;;1.47;;
18544;SDS011;9402;51.460;7.276;2022-07-04T06:53:57;3.20;;;1.13;;
18544;SDS011;9402;51.460;7.276;2022-07-04T06:55:59;2.90;;;1.40;;
18544;SDS011;9402;51.460;7.276;2022-07-04T06:58:02;2.03;;;1.50;;
18544;SDS011;9402;51.460;7.276;2022-07-04T07:00:05;2.17;;;1.30;;
18544;SDS011;9402;51.460;7.276;2022-07-04T07:02:08;3.40;;;1.20;;
18544;SDS011;9402;51.460;7.276;2022-07-04T07:04:10;4.73;;;1.10;;
18544;SDS011;9402;51.460;7.276;2022-07-04T07:06:14;12.60;;;1.83;;
18544;SDS011;9402;51.460;7.276;2022-07-04T07:08:17;3.13;;;1.20;;
18544;SDS011;9402;51.460;7.276;2022-07-04T07:10:19;2.80;;;1.40;;
18544;SDS011;9402;51.460;7.276;2022-07-04T07:12:22;2.77;;;1.70;;
18544;SDS011;9402;51.460;7.276;2022-07-04T07:14:25;21.53;;;1.77;;
18544;SDS011;9402;51.460;7.276;2022-07-04T07:16:27;7.97;;;2.00;;
18544;SDS011;9402;51.460;7.276;2022-07-04T07:18:30;5.30;;;1.50;;
18544;SDS011;9402;51.460;7.276;2022-07-04T07:20:32;4.80;;;1.30;;
18544;SDS011;9402;51.460;7.276;2022-07-04T07:22:36;2.97;;;1.10;;
18544;SDS011;9402;51.460;7.276;2022-07-04T07:24:38;3.73;;;1.07;;
18544;SDS011;9402;51.460;7.276;2022-07-04T07:26:41;1.77;;;1.00;;
18544;SDS011;9402;51.460;7.276;2022-07-04T07:28:43;0.90;;;0.80;;
18544;SDS011;9402;51.460;7.276;2022-07-04T07:30:45;4.03;;;1.10;;
18544;SDS011;9402;51.460;7.276;2022-07-04T07:32:48;4.60;;;1.20;;
18544;SDS011;9402;51.460;7.276;2022-07-04T07:34:50;6.57;;;1.13;;
18544;SDS011;9402;51.460;7.276;2022-07-04T07:36:53;2.00;;;1.60;;
18544;SDS011;9402;51.460;7.276;2022-07-04T07:38:57;5.60;;;1.33;;
18544;SDS011;9402;51.460;7.276;2022-07-04T07:41:00;4.07;;;1.27;;
18544;SDS011;9402;51.460;7.276;2022-07-04T07:43:03;2.10;;;0.87;;
18544;SDS011;9402;51.460;7.276;2022-07-04T07:45:05;1.40;;;0.90;;
18544;SDS011;9402;51.460;7.276;2022-07-04T07:47:09;3.07;;;1.00;;
18544;SDS011;9402;51.460;7.276;2022-07-04T07:49:11;3.20;;;1.00;;
18544;SDS011;9402;51.460;7.276;2022-07-04T07:51:13;4.40;;;1.30;;
18544;SDS011;9402;51.460;7.276;2022-07-04T07:53:16;1.20;;;0.83;;
18544;SDS011;9402;51.460;7.276;2022-07-04T07:55:20;4.80;;;1.03;;
18544;SDS011;9402;51.460;7.276;2022-07-04T07:57:22;0.80;;;0.70;;
18544;SDS011;9402;51.460;7.276;2022-07-04T07:59:24;2.10;;;0.97;;
18544;SDS011;9402;51.460;7.276;2022-07-04T08:01:27;2.20;;;0.87;;
18544;SDS011;9402;51.460;7.276;2022-07-04T08:03:29;2.03;;;0.80;;
18544;SDS011;9402;51.460;7.276;2022-07-04T08:05:49;2.10;;;1.00;;
18544;SDS011;9402;51.460;7.276;2022-07-04T08:07:52;1.53;;;1.00;;
18544;SDS011;9402;51.460;7.276;2022-07-04T08:09:54;2.07;;;1.00;;
18544;SDS011;9402;51.460;7.276;2022-07-04T08:11:59;2.67;;;0.77;;
18544;SDS011;9402;51.460;7.276;2022-07-04T08:14:02;2.40;;;1.00;;
18544;SDS011;9402;51.460;7.276;2022-07-04T08:16:06;7.00;;;0.93;;
18544;SDS011;9402;51.460;7.276;2022-07-04T08:18:09;1.87;;;0.90;;
18544;SDS011;9402;51.460;7.276;2022-07-04T08:20:12;4.10;;;1.03;;
18544;SDS011;9402;51.460;7.276;2022-07-04T08:22:14;4.67;;;0.87;;
18544;SDS011;9402;51.460;7.276;2022-07-04T08:24:16;3.10;;;0.77;;
18544;SDS011;9402;51.460;7.276;2022-07-04T08:26:19;2.00;;;0.90;;
18544;SDS011;9402;51.460;7.276;2022-07-04T08:28:23;13.53;;;1.40;;
18544;SDS011;9402;51.460;7.276;2022-07-04T08:30:25;1.27;;;0.80;;
18544;SDS011;9402;51.460;7.276;2022-07-04T08:32:28;3.33;;;0.93;;
18544;SDS011;9402;51.460;7.276;2022-07-04T08:34:30;1.67;;;0.83;;
18544;SDS011;9402;51.460;7.276;2022-07-04T08:36:33;6.93;;;1.10;;
18544;SDS011;9402;51.460;7.276;2022-07-04T08:38:35;2.80;;;0.80;;
18544;SDS011;9402;51.460;7.276;2022-07-04T08:40:37;3.40;;;1.33;;
18544;SDS011;9402;51.460;7.276;2022-07-04T08:42:42;1.77;;;0.80;;
18544;SDS011;9402;51.460;7.276;2022-07-04T08:44:46;2.80;;;0.80;;
18544;SDS011;9402;51.460;7.276;2022-07-04T08:46:49;4.83;;;1.00;;
18544;SDS011;9402;51.460;7.276;2022-07-04T08:48:54;6.40;;;0.97;;
18544;SDS011;9402;51.460;7.276;2022-07-04T08:50:59;3.47;;;0.90;;
18544;SDS011;9402;51.460;7.276;2022-07-04T08:53:06;3.00;;;1.27;;
18544;SDS011;9402;51.460;7.276;2022-07-04T08:55:11;1.20;;;0.90;;
18544;SDS011;9402;51.460;7.276;2022-07-04T08:57:32;2.63;;;0.80;;
18544;SDS011;9402;51.460;7.276;2022-07-04T08:59:53;1.97;;;0.63;;
18544;SDS011;9402;51.460;7.276;2022-07-04T09:01:56;2.37;;;0.73;;
18544;SDS011;9402;51.460;7.276;2022-07-04T09:03:58;1.43;;;0.80;;
18544;SDS011;9402;51.460;7.276;2022-07-04T09:06:01;15.23;;;1.20;;
18544;SDS011;9402;51.460;7.276;2022-07-04T09:08:05;3.93;;;0.90;;
18544;SDS011;9402;51.460;7.276;2022-07-04T09:10:07;4.83;;;1.00;;
18544;SDS011;9402;51.460;7.276;2022-07-04T09:12:10;1.10;;;0.80;;
18544;SDS011;9402;51.460;7.276;2022-07-04T09:14:13;1.93;;;0.80;;
18544;SDS011;9402;51.460;7.276;2022-07-04T09:16:17;1.90;;;1.00;;
18544;SDS011;9402;51.460;7.276;2022-07-04T09:18:20;1.33;;;0.80;;
18544;SDS011;9402;51.460;7.276;2022-07-04T09:20:23;1.17;;;0.80;;
18544;SDS011;9402;51.460;7.276;2022-07-04T09:22:26;2.60;;;0.80;;
18544;SDS011;9402;51.460;7.276;2022-07-04T09:24:43;0.90;;;0.70;;
18544;SDS011;9402;51.460;7.276;2022-07-04T09:26:46;1.83;;;0.83;;
18544;SDS011;9402;51.460;7.276;2022-07-04T09:28:50;2.23;;;0.80;;
18544;SDS011;9402;51.460;7.276;2022-07-04T09:30:54;0.90;;;0.70;;
18544;SDS011;9402;51.460;7.276;2022-07-04T09:32:58;1.67;;;0.93;;
18544;SDS011;9402;51.460;7.276;2022-07-04T09:35:01;0.90;;;0.70;;
18544;SDS011;9402;51.460;7.276;2022-07-04T09:37:03;1.37;;;0.87;;
18544;SDS011;9402;51.460;7.276;2022-07-04T09:39:07;1.53;;;0.80;;
18544;SDS011;9402;51.460;7.276;2022-07-04T09:41:12;1.87;;;0.70;;
18544;SDS011;9402;51.460;7.276;2022-07-04T09:43:29;2.60;;;0.60;;
18544;SDS011;9402;51.460;7.276;2022-07-04T09:45:32;1.00;;;0.73;;
18544;SDS011;9402;51.460;7.276;2022-07-04T09:47:34;3.97;;;1.50;;
18544;SDS011;9402;51.460;7.276;2022-07-04T09:49:38;1.13;;;0.80;;
18544;SDS011;9402;51.460;7.276;2022-07-04T09:51:41;2.70;;;0.77;;
18544;SDS011;9402;51.460;7.276;2022-07-04T09:53:44;2.17;;;0.73;;
18544;SDS011;9402;51.460;7.276;2022-07-04T09:55:46;2.60;;;1.13;;
18544;SDS011;9402;51.460;7.276;2022-07-04T09:57:51;2.40;;;0.80;;
18544;SDS011;9402;51.460;7.276;2022-07-04T09:59:55;1.27;;;0.90;;
18544;SDS011;9402;51.460;7.276;2022-07-04T10:02:07;0.77;;;0.60;;
18544;SDS011;9402;51.460;7.276;2022-07-04T10:04:10;2.50;;;0.73;;
18544;SDS011;9402;51.460;7.276;2022-07-04T10:06:14;1.00;;;0.70;;
18544;SDS011;9402;51.460;7.276;2022-07-04T10:08:17;0.97;;;0.70;;
18544;SDS011;9402;51.460;7.276;2022-07-04T10:10:29;2.20;;;1.07;;
18544;SDS011;9402;51.460;7.276;2022-07-04T10:12:33;5.60;;;0.90;;
18544;SDS011;9402;51.460;7.276;2022-07-04T10:14:36;8.23;;;1.00;;
18544;SDS011;9402;51.460;7.276;2022-07-04T10:16:41;1.37;;;0.90;;
18544;SDS011;9402;51.460;7.276;2022-07-04T10:18:43;1.90;;;0.70;;
18544;SDS011;9402;51.460;7.276;2022-07-04T10:20:46;1.10;;;0.90;;
18544;SDS011;9402;51.460;7.276;2022-07-04T10:22:51;0.83;;;0.70;;
18544;SDS011;9402;51.460;7.276;2022-07-04T10:24:54;4.07;;;0.80;;
18544;SDS011;9402;51.460;7.276;2022-07-04T10:26:56;1.77;;;0.97;;
18544;SDS011;9402;51.460;7.276;2022-07-04T10:28:58;2.80;;;0.80;;
18544;SDS011;9402;51.460;7.276;2022-07-04T10:31:01;0.80;;;0.77;;
18544;SDS011;9402;51.460;7.276;2022-07-04T10:33:04;1.20;;;0.83;;
18544;SDS011;9402;51.460;7.276;2022-07-04T10:35:08;2.70;;;1.10;;
18544;SDS011;9402;51.460;7.276;2022-07-04T10:37:13;1.30;;;0.80;;
18544;SDS011;9402;51.460;7.276;2022-07-04T10:39:20;1.67;;;0.70;;
18544;SDS011;9402;51.460;7.276;2022-07-04T10:41:24;1.50;;;0.80;;
18544;SDS011;9402;51.460;7.276;2022-07-04T10:46:25;1.07;;;0.70;;
18544;SDS011;9402;51.460;7.276;2022-07-04T10:48:29;1.17;;;0.90;;
18544;SDS011;9402;51.460;7.276;2022-07-04T10:50:31;1.67;;;0.90;;
18544;SDS011;9402;51.460;7.276;2022-07-04T10:52:34;3.10;;;1.10;;
18544;SDS011;9402;51.460;7.276;2022-07-04T10:54:38;3.63;;;0.80;;
18544;SDS011;9402;51.460;7.276;2022-07-04T10:56:45;0.80;;;0.70;;
18544;SDS011;9402;51.460;7.276;2022-07-04T10:58:49;4.30;;;0.97;;
18544;SDS011;9402;51.460;7.276;2022-07-04T11:03:15;2.10;;;1.00;;
18544;SDS011;9402;51.460;7.276;2022-07-04T11:05:27;3.87;;;0.87;;
18544;SDS011;9402;51.460;7.276;2022-07-04T11:12:26;1.97;;;0.97;;
18544;SDS011;9402;51.460;7.276;2022-07-04T11:14:32;2.90;;;0.90;;
18544;SDS011;9402;51.460;7.276;2022-07-04T11:16:51;6.63;;;1.13;;
18544;SDS011;9402;51.460;7.276;2022-07-04T11:18:54;1.73;;;1.00;;
18544;SDS011;9402;51.460;7.276;2022-07-04T11:20:56;4.40;;;1.53;;
18544;SDS011;9402;51.460;7.276;2022-07-04T11:23:03;2.20;;;0.80;;
18544;SDS011;9402;51.460;7.276;2022-07-04T11:25:06;1.43;;;0.80;;
18544;SDS011;9402;51.460;7.276;2022-07-04T11:27:10;4.93;;;1.00;;
18544;SDS011;9402;51.460;7.276;2022-07-04T11:29:13;1.50;;;0.80;;
18544;SDS011;9402;51.460;7.276;2022-07-04T11:31:15;1.40;;;0.90;;
18544;SDS011;9402;51.460;7.276;2022-07-04T11:33:18;4.40;;;0.90;;
18544;SDS011;9402;51.460;7.276;2022-07-04T11:35:24;3.07;;;1.00;;
18544;SDS011;9402;51.460;7.276;2022-07-04T11:37:27;5.27;;;1.20;;
18544;SDS011;9402;51.460;7.276;2022-07-04T11:39:29;2.70;;;0.90;;
18544;SDS011;9402;51.460;7.276;2022-07-04T11:41:33;1.57;;;0.80;;
18544;SDS011;9402;51.460;7.276;2022-07-04T11:43:55;2.87;;;1.07;;
18544;SDS011;9402;51.460;7.276;2022-07-04T11:46:15;1.00;;;0.80;;
18544;SDS011;9402;51.460;7.276;2022-07-04T11:48:20;1.83;;;1.03;;
18544;SDS011;9402;51.460;7.276;2022-07-04T11:50:22;2.53;;;1.00;;
18544;SDS011;9402;51.460;7.276;2022-07-04T11:52:26;5.97;;;1.00;;
18544;SDS011;9402;51.460;7.276;2022-07-04T11:54:29;4.37;;;1.50;;
18544;SDS011;9402;51.460;7.276;2022-07-04T11:56:32;3.57;;;0.93;;
18544;SDS011;9402;51.460;7.276;2022-07-04T11:58:38;2.60;;;1.00;;
18544;SDS011;9402;51.460;7.276;2022-07-04T12:00:43;2.43;;;0.80;;
18544;SDS011;9402;51.460;7.276;2022-07-04T12:02:47;1.70;;;1.00;;
18544;SDS011;9402;51.460;7.276;2022-07-04T12:04:50;4.50;;;1.03;;
18544;SDS011;9402;51.460;7.276;2022-07-04T12:06:52;1.57;;;0.80;;
18544;SDS011;9402;51.460;7.276;2022-07-04T12:08:59;1.73;;;0.80;;
18544;SDS011;9402;51.460;7.276;2022-07-04T12:11:01;1.33;;;0.70;;
18544;SDS011;9402;51.460;7.276;2022-07-04T12:13:04;0.93;;;0.73;;
18544;SDS011;9402;51.460;7.276;2022-07-04T12:15:09;11.73;;;0.93;;
18544;SDS011;9402;51.460;7.276;2022-07-04T12:17:14;1.37;;;0.93;;
18544;SDS011;9402;51.460;7.276;2022-07-04T12:19:17;2.50;;;0.90;;
18544;SDS011;9402;51.460;7.276;2022-07-04T12:21:20;8.00;;;1.00;;
18544;SDS011;9402;51.460;7.276;2022-07-04T12:23:23;2.27;;;1.00;;
18544;SDS011;9402;51.460;7.276;2022-07-04T12:25:26;3.80;;;0.90;;
18544;SDS011;9402;51.460;7.276;2022-07-04T12:27:29;1.00;;;0.80;;
18544;SDS011;9402;51.460;7.276;2022-07-04T12:29:32;2.07;;;0.93;;
18544;SDS011;9402;51.460;7.276;2022-07-04T12:31:38;1.00;;;0.80;;
18544;SDS011;9402;51.460;7.276;2022-07-04T12:33:42;1.43;;;0.90;;
18544;SDS011;9402;51.460;7.276;2022-07-04T12:35:56;4.13;;;0.93;;
18544;SDS011;9402;51.460;7.276;2022-07-04T12:38:01;4.20;;;1.10;;
18544;SDS011;9402;51.460;7.276;2022-07-04T12:40:07;4.30;;;1.00;;
18544;SDS011;9402;51.460;7.276;2022-07-04T12:42:11;1.10;;;0.90;;
18544;SDS011;9402;51.460;7.276;2022-07-04T12:44:19;1.10;;;0.90;;
18544;SDS011;9402;51.460;7.276;2022-07-04T12:46:26;2.33;;;0.90;;